createdAt,value
2023-05-11T00:01:36.684Z,12.30
2023-05-11T00:04:03.412Z,12.30
2023-05-11T00:06:30.125Z,12.30
2023-05-11T00:08:56.784Z,12.20
2023-05-11T00:11:23.780Z,12.20
2023-05-11T00:13:50.638Z,12.20
2023-05-11T00:16:17.400Z,12.20
2023-05-11T00:18:44.147Z,12.10
2023-05-11T00:21:10.904Z,12.10
2023-05-11T00:23:37.561Z,12.10
2023-05-11T00:33:26.154Z,12.10
2023-05-11T00:35:52.911Z,12.10
2023-05-11T00:38:20.032Z,12.10
2023-05-11T00:40:46.729Z,12.00
2023-05-11T00:43:13.493Z,12.00
2023-05-11T00:45:40.574Z,12.00
2023-05-11T00:48:07.555Z,11.90
2023-05-11T00:50:35.675Z,12.00
2023-05-11T00:53:03.359Z,11.90
2023-05-11T00:55:30.818Z,11.90
2023-05-11T00:57:57.581Z,11.90
2023-05-11T01:00:24.576Z,11.90
2023-05-11T01:02:51.823Z,11.90
2023-05-11T01:05:18.742Z,11.90
2023-05-11T01:07:45.357Z,11.80
2023-05-11T01:10:32.299Z,12.00
2023-05-11T01:13:21.284Z,11.80
2023-05-11T01:15:51.770Z,11.80
2023-05-11T01:18:30.816Z,11.80
2023-05-11T01:21:01.641Z,11.80
2023-05-11T01:23:34.023Z,11.80
2023-05-11T01:26:22.552Z,11.70
2023-05-11T01:29:01.460Z,11.70
2023-05-11T01:31:31.959Z,11.70
2023-05-11T01:34:03.729Z,11.60
2023-05-11T01:36:35.228Z,11.60
2023-05-11T01:39:06.900Z,11.60
2023-05-11T01:41:35.978Z,11.50
2023-05-11T01:44:07.475Z,11.50
2023-05-11T01:46:35.097Z,11.50
2023-05-11T01:49:07.505Z,11.50
2023-05-11T01:51:39.908Z,11.50
2023-05-11T01:54:08.631Z,11.40
2023-05-11T01:56:37.719Z,11.40
2023-05-11T01:59:05.826Z,11.40
2023-05-11T02:01:35.772Z,11.40
2023-05-11T02:04:04.584Z,11.40
2023-05-11T02:06:34.348Z,11.30
2023-05-11T02:09:03.172Z,11.30
2023-05-11T02:11:31.701Z,11.40
2023-05-11T02:13:59.268Z,11.30
2023-05-11T02:16:28.315Z,11.30
2023-05-11T02:18:57.228Z,11.30
2023-05-11T02:21:26.321Z,11.30
2023-05-11T02:23:54.087Z,11.30
2023-05-11T02:26:22.398Z,11.30
2023-05-11T02:28:49.148Z,11.30
2023-05-11T02:31:20.048Z,11.30
2023-05-11T02:33:52.129Z,11.30
2023-05-11T02:36:22.322Z,11.30
2023-05-11T02:38:54.723Z,11.20
2023-05-11T02:41:28.593Z,11.20
2023-05-11T02:43:56.893Z,11.20
2023-05-11T02:46:29.604Z,11.20
2023-05-11T02:49:01.043Z,11.10
2023-05-11T02:51:34.661Z,11.20
2023-05-11T02:54:02.925Z,11.20
2023-05-11T02:56:30.125Z,11.20
2023-05-11T02:58:56.967Z,11.20
2023-05-11T03:01:24.527Z,11.10
2023-05-11T03:03:51.798Z,11.20
2023-05-11T03:06:18.472Z,11.20
2023-05-11T03:08:45.284Z,11.20
2023-05-11T03:11:14.727Z,11.20
2023-05-11T03:13:42.920Z,11.20
2023-05-11T03:16:11.468Z,11.20
2023-05-11T03:18:38.738Z,11.20
2023-05-11T03:21:07.054Z,11.20
2023-05-11T03:23:36.080Z,11.10
2023-05-11T03:26:04.711Z,11.20
2023-05-11T03:28:32.453Z,11.10
2023-05-11T03:30:59.258Z,11.20
2023-05-11T03:33:26.303Z,11.10
2023-05-11T03:35:54.258Z,11.10
2023-05-11T03:38:24.252Z,11.20
2023-05-11T03:40:53.508Z,11.20
2023-05-11T03:43:21.877Z,11.20
2023-05-11T03:45:51.939Z,11.20
2023-05-11T03:48:19.464Z,11.10
2023-05-11T03:50:47.207Z,11.10
2023-05-11T03:53:16.306Z,11.10
2023-05-11T03:55:43.032Z,11.10
2023-05-11T03:58:10.418Z,11.10
2023-05-11T04:00:41.906Z,11.10
2023-05-11T04:03:09.978Z,11.20
2023-05-11T04:05:36.776Z,11.20
2023-05-11T04:08:04.726Z,11.20
2023-05-11T04:10:31.444Z,11.20
2023-05-11T04:12:58.107Z,11.20
2023-05-11T04:15:24.814Z,11.20
2023-05-11T04:17:51.486Z,11.20
2023-05-11T04:20:18.322Z,11.30
2023-05-11T04:22:45.198Z,11.30
2023-05-11T04:25:12.201Z,11.30
2023-05-11T04:27:39.153Z,11.30
2023-05-11T04:30:06.805Z,11.30
2023-05-11T04:32:33.487Z,11.30
2023-05-11T04:35:00.246Z,11.30
2023-05-11T04:37:26.982Z,11.40
2023-05-11T04:39:53.699Z,11.40
2023-05-11T04:42:20.449Z,11.40
2023-05-11T04:44:47.093Z,11.50
2023-05-11T04:47:14.672Z,11.50
2023-05-11T04:49:41.384Z,11.50
2023-05-11T04:52:08.022Z,11.50
2023-05-11T04:54:36.880Z,11.60
2023-05-11T04:57:03.568Z,11.60
2023-05-11T04:59:30.336Z,11.60
2023-05-11T05:01:56.995Z,11.60
2023-05-11T05:04:23.609Z,11.70
2023-05-11T05:06:50.274Z,11.70
2023-05-11T05:09:17.138Z,11.80
2023-05-11T05:11:43.822Z,11.80
2023-05-11T05:14:10.581Z,11.90
2023-05-11T05:16:37.310Z,11.90
2023-05-11T05:19:04.113Z,12.00
2023-05-11T05:21:31.125Z,12.00
2023-05-11T05:23:57.797Z,12.00
2023-05-11T05:26:24.663Z,12.10
2023-05-11T05:28:51.335Z,12.10
2023-05-11T05:31:18.015Z,12.10
2023-05-11T05:33:44.726Z,12.20
2023-05-11T05:36:11.361Z,12.20
2023-05-11T05:38:38.006Z,12.20
2023-05-11T05:41:04.742Z,12.30
2023-05-11T05:43:31.402Z,12.30
2023-05-11T05:45:58.057Z,12.30
2023-05-11T05:48:24.752Z,12.30
2023-05-11T05:50:51.541Z,12.30
2023-05-11T05:53:18.434Z,12.30
2023-05-11T05:55:45.110Z,12.20
2023-05-11T05:58:12.455Z,12.20
2023-05-11T06:00:39.120Z,12.20
2023-05-11T06:03:05.897Z,12.20
2023-05-11T06:05:32.588Z,12.10
2023-05-11T06:08:09.718Z,12.20
2023-05-11T06:10:37.613Z,12.20
2023-05-11T06:13:04.270Z,12.20
2023-05-11T06:15:31.105Z,12.20
2023-05-11T06:17:57.809Z,12.20
2023-05-11T06:20:24.627Z,12.10
2023-05-11T06:22:51.259Z,12.10
2023-05-11T06:25:17.996Z,12.10
2023-05-11T06:27:44.643Z,12.20
2023-05-11T06:30:11.637Z,12.20
2023-05-11T06:32:38.336Z,12.30
2023-05-11T06:35:05.365Z,12.30
2023-05-11T06:37:32.225Z,12.40
2023-05-11T06:39:59.565Z,12.40
2023-05-11T06:42:26.368Z,12.50
2023-05-11T06:44:53.208Z,12.40
2023-05-11T06:47:20.140Z,12.40
2023-05-11T06:49:46.855Z,12.50
2023-05-11T06:52:13.537Z,12.50
2023-05-11T06:54:40.183Z,12.70
2023-05-11T06:57:06.989Z,12.70
2023-05-11T06:59:33.630Z,12.80
2023-05-11T07:02:00.316Z,12.80
2023-05-11T07:04:27.206Z,12.90
2023-05-11T07:06:54.357Z,12.90
2023-05-11T07:09:21.187Z,12.90
2023-05-11T07:11:48.393Z,12.90
2023-05-11T07:14:15.060Z,12.90
2023-05-11T07:16:42.159Z,13.00
2023-05-11T07:19:09.849Z,13.00
2023-05-11T07:21:36.930Z,13.20
2023-05-11T07:24:04.035Z,13.30
2023-05-11T07:26:30.757Z,13.50
2023-05-11T07:28:57.398Z,13.60
2023-05-11T07:31:24.068Z,13.80
2023-05-11T07:33:50.790Z,13.90
2023-05-11T07:36:17.771Z,13.90
2023-05-11T07:38:44.434Z,14.00
2023-05-11T07:41:12.644Z,13.80
2023-05-11T07:43:39.871Z,13.80
2023-05-11T07:46:07.254Z,13.60
2023-05-11T07:48:33.906Z,13.60
2023-05-11T07:51:01.566Z,13.80
2023-05-11T07:53:28.216Z,13.90
2023-05-11T07:55:54.908Z,14.00
2023-05-11T07:58:21.572Z,14.00
2023-05-11T08:00:48.240Z,14.10
2023-05-11T08:03:15.799Z,14.20
2023-05-11T08:05:42.519Z,14.20
2023-05-11T08:08:09.238Z,14.20
2023-05-11T08:10:36.808Z,14.20
2023-05-11T08:13:03.661Z,14.10
2023-05-11T08:15:30.371Z,14.00
2023-05-11T08:17:57.118Z,13.90
2023-05-11T08:20:23.846Z,13.80
2023-05-11T08:22:50.550Z,13.80
2023-05-11T08:25:17.635Z,13.70
2023-05-11T08:27:44.436Z,13.50
2023-05-11T08:30:12.111Z,13.50
2023-05-11T08:32:54.577Z,13.60
2023-05-11T08:35:25.466Z,13.60
2023-05-11T08:37:52.127Z,13.60
2023-05-11T08:40:20.261Z,13.70
2023-05-11T08:42:49.460Z,13.70
2023-05-11T08:45:17.781Z,13.70
2023-05-11T08:47:45.662Z,13.80
2023-05-11T08:50:12.640Z,13.90
2023-05-11T08:52:40.676Z,13.90
2023-05-11T08:55:09.139Z,13.80
2023-05-11T08:57:36.547Z,13.80
2023-05-11T09:00:04.608Z,13.90
2023-05-11T09:02:32.419Z,14.00
2023-05-11T09:04:59.983Z,14.00
2023-05-11T09:07:28.266Z,13.90
2023-05-11T09:09:54.989Z,13.90
2023-05-11T09:12:25.989Z,13.80
2023-05-11T09:14:52.952Z,13.70
2023-05-11T09:17:19.640Z,13.60
2023-05-11T09:20:01.993Z,13.40
2023-05-11T09:22:31.376Z,13.40
2023-05-11T09:25:01.747Z,13.30
2023-05-11T09:27:28.434Z,13.30
2023-05-11T09:29:55.330Z,13.40
2023-05-11T09:32:22.131Z,13.50
2023-05-11T09:34:49.063Z,13.50
2023-05-11T09:37:17.751Z,13.50
2023-05-11T09:42:21.736Z,13.50
2023-05-11T09:44:48.898Z,13.50
2023-05-11T09:47:17.643Z,13.50
2023-05-11T09:49:45.707Z,13.50
2023-05-11T09:52:18.180Z,13.50
2023-05-11T09:54:47.757Z,13.50
2023-05-11T09:57:28.574Z,13.50
2023-05-11T09:59:56.699Z,13.60
2023-05-11T10:02:28.758Z,13.70
2023-05-11T10:05:00.506Z,13.80
2023-05-11T10:07:32.144Z,13.90
2023-05-11T10:10:03.818Z,13.90
2023-05-11T10:12:33.337Z,14.00
2023-05-11T10:15:08.104Z,14.00
2023-05-11T10:17:35.690Z,14.10
2023-05-11T10:20:04.362Z,14.10
2023-05-11T10:22:31.490Z,14.10
2023-05-11T10:24:59.451Z,14.40
2023-05-11T10:27:27.080Z,14.50
2023-05-11T10:29:53.761Z,14.40
2023-05-11T10:32:21.293Z,14.50
2023-05-11T10:34:50.236Z,14.40
2023-05-11T10:37:17.459Z,14.40
2023-05-11T10:39:48.482Z,14.40
2023-05-11T10:42:37.261Z,14.40
2023-05-11T10:45:22.702Z,14.60
2023-05-11T10:48:09.222Z,14.70
2023-05-11T10:50:44.512Z,14.90
2023-05-11T10:53:50.718Z,15.00
2023-05-11T10:56:35.998Z,15.20
2023-05-11T10:59:08.710Z,15.10
2023-05-11T11:01:42.696Z,15.10
2023-05-11T11:04:13.624Z,15.10
2023-05-11T11:06:42.863Z,15.20
2023-05-11T11:09:15.511Z,15.20
2023-05-11T11:11:47.877Z,15.30
2023-05-11T11:14:16.442Z,15.10
2023-05-11T11:17:15.241Z,15.20
2023-05-11T11:19:43.430Z,15.20
2023-05-11T11:22:34.955Z,15.30
2023-05-11T11:25:05.377Z,15.50
2023-05-11T11:27:41.434Z,15.40
2023-05-11T11:30:29.604Z,15.60
2023-05-11T11:33:16.621Z,15.60
2023-05-11T11:35:43.529Z,15.70
2023-05-11T11:38:15.946Z,15.70
2023-05-11T11:43:19.588Z,15.40
2023-05-11T11:45:53.327Z,15.30
2023-05-11T11:48:40.498Z,15.20
2023-05-11T11:51:07.309Z,15.10
2023-05-11T11:53:40.969Z,15.10
2023-05-11T11:56:28.831Z,15.00
2023-05-11T11:59:00.143Z,14.90
2023-05-11T12:01:29.376Z,14.80
2023-05-11T12:04:05.241Z,14.50
2023-05-11T12:06:37.916Z,14.50
2023-05-11T12:09:07.659Z,14.40
2023-05-11T12:11:34.679Z,14.40
2023-05-11T12:14:02.538Z,14.40
2023-05-11T12:16:30.162Z,14.30
2023-05-11T12:19:01.520Z,14.20
2023-05-11T12:21:31.854Z,14.30
2023-05-11T12:24:02.531Z,14.30
2023-05-11T12:26:30.674Z,14.40
2023-05-11T12:29:12.543Z,14.40
2023-05-11T12:31:41.259Z,14.50
2023-05-11T12:34:17.446Z,14.40
2023-05-11T12:36:48.499Z,14.30
2023-05-11T12:39:26.682Z,14.30
2023-05-11T12:41:56.139Z,14.20
2023-05-11T12:44:26.059Z,14.20
2023-05-11T12:46:53.488Z,14.10
2023-05-11T12:49:26.220Z,14.10
2023-05-11T12:51:59.116Z,14.00
2023-05-11T12:54:33.773Z,14.10
2023-05-11T12:57:02.758Z,14.10
2023-05-11T12:59:30.757Z,14.00
2023-05-11T13:02:15.961Z,14.00
2023-05-11T13:04:43.917Z,14.10
2023-05-11T13:07:11.753Z,14.10
2023-05-11T13:09:39.858Z,14.20
2023-05-11T13:12:12.334Z,14.20
2023-05-11T13:14:39.761Z,14.30
2023-05-11T13:17:06.766Z,14.40
2023-05-11T13:19:33.929Z,14.40
2023-05-11T13:22:01.114Z,14.40
2023-05-11T13:24:27.831Z,14.40
2023-05-11T13:26:56.191Z,14.30
2023-05-11T13:29:23.102Z,14.30
2023-05-11T13:31:51.695Z,14.30
2023-05-11T13:34:19.755Z,14.30
2023-05-11T13:36:46.780Z,14.30
2023-05-11T13:39:13.588Z,14.30
2023-05-11T13:41:40.355Z,14.40
2023-05-11T13:44:07.430Z,14.40
2023-05-11T13:46:34.836Z,14.50
2023-05-11T13:49:01.582Z,14.60
2023-05-11T13:51:28.264Z,14.60
2023-05-11T13:53:54.923Z,14.80
2023-05-11T13:56:22.098Z,14.90
2023-05-11T13:58:48.993Z,14.90
2023-05-11T14:01:15.761Z,15.00
2023-05-11T14:03:42.633Z,15.10
2023-05-11T14:06:09.591Z,15.30
2023-05-11T14:08:36.407Z,15.20
2023-05-11T14:11:03.137Z,15.20
2023-05-11T14:13:29.887Z,15.10
2023-05-11T14:15:57.115Z,15.00
2023-05-11T14:18:26.017Z,14.90
2023-05-11T14:20:54.009Z,14.80
2023-05-11T14:23:20.735Z,14.80
2023-05-11T14:25:47.431Z,14.70
2023-05-11T14:28:14.138Z,14.80
2023-05-11T14:30:41.062Z,14.60
2023-05-11T14:33:08.006Z,14.50
2023-05-11T14:35:36.009Z,14.50
2023-05-11T14:38:04.578Z,14.40
2023-05-11T14:40:31.444Z,14.50
2023-05-11T14:42:58.207Z,14.40
2023-05-11T14:45:25.024Z,14.30
2023-05-11T14:47:51.806Z,14.20
2023-05-11T14:50:18.736Z,14.30
2023-05-11T14:52:45.536Z,14.20
2023-05-11T14:55:12.419Z,14.30
2023-05-11T14:57:39.556Z,14.30
2023-05-11T15:00:07.090Z,14.20
2023-05-11T15:02:33.860Z,14.30
2023-05-11T15:05:01.738Z,14.30
2023-05-11T15:07:28.526Z,14.30
2023-05-11T15:09:56.032Z,14.30
2023-05-11T15:12:23.712Z,14.20
2023-05-11T15:14:50.883Z,14.20
2023-05-11T15:17:17.923Z,14.20
2023-05-11T15:19:44.911Z,14.30
2023-05-11T15:22:11.874Z,14.20
2023-05-11T15:24:39.006Z,14.10
2023-05-11T15:27:06.054Z,14.00
2023-05-11T15:29:32.934Z,13.90
2023-05-11T15:31:59.716Z,13.80
2023-05-11T15:34:27.060Z,13.70
2023-05-11T15:36:54.030Z,13.70
2023-05-11T15:39:20.828Z,13.60
2023-05-11T15:41:47.716Z,13.50
2023-05-11T15:44:14.502Z,13.40
2023-05-11T15:46:41.342Z,13.30
2023-05-11T15:49:08.076Z,13.20
2023-05-11T15:51:34.881Z,13.20
2023-05-11T15:54:01.557Z,13.10
2023-05-11T15:56:28.277Z,13.10
2023-05-11T15:58:54.996Z,13.10
2023-05-11T16:01:22.333Z,13.20
2023-05-11T16:03:49.260Z,13.20
2023-05-11T16:06:16.208Z,13.20
2023-05-11T16:08:42.935Z,13.20
2023-05-11T16:11:09.731Z,13.20
2023-05-11T16:13:36.373Z,13.30
2023-05-11T16:16:03.075Z,13.40
2023-05-11T16:18:29.759Z,13.40
2023-05-11T16:20:56.469Z,13.40
2023-05-11T16:23:25.256Z,13.40
2023-05-11T16:25:52.381Z,13.40
2023-05-11T16:28:19.081Z,13.40
2023-05-11T16:30:45.756Z,13.30
2023-05-11T16:33:12.554Z,13.30
2023-05-11T16:35:39.346Z,13.30
2023-05-11T16:38:06.255Z,13.40
2023-05-11T16:40:32.947Z,13.40
2023-05-11T16:42:59.851Z,13.40
2023-05-11T16:45:26.569Z,13.50
2023-05-11T16:47:53.519Z,13.50
2023-05-11T16:50:20.461Z,13.60
2023-05-11T16:52:48.648Z,13.60
2023-05-11T16:55:16.109Z,13.60
2023-05-11T16:57:43.886Z,13.70
2023-05-11T17:00:11.611Z,13.70
2023-05-11T17:02:38.382Z,13.60
2023-05-11T17:05:06.494Z,13.50
2023-05-11T17:07:33.771Z,13.40
2023-05-11T17:10:00.493Z,13.30
2023-05-11T17:12:28.722Z,13.30
2023-05-11T17:14:55.741Z,13.20
2023-05-11T17:17:22.691Z,13.00
2023-05-11T17:19:49.343Z,12.90
2023-05-11T17:22:16.043Z,12.80
2023-05-11T17:24:43.237Z,12.70
2023-05-11T17:27:09.882Z,12.70
2023-05-11T17:29:36.535Z,12.60
2023-05-11T17:32:03.520Z,12.60
2023-05-11T17:34:30.584Z,12.60
2023-05-11T17:36:57.330Z,12.60
2023-05-11T17:39:24.002Z,12.60
2023-05-11T17:41:50.644Z,12.60
2023-05-11T17:44:17.290Z,12.50
2023-05-11T17:46:43.953Z,12.50
2023-05-11T17:49:10.748Z,12.50
2023-05-11T17:51:37.452Z,12.40
2023-05-11T17:54:04.147Z,12.40
2023-05-11T17:56:31.415Z,12.40
2023-05-11T17:58:58.273Z,12.30
2023-05-11T18:01:27.184Z,12.30
2023-05-11T18:03:55.363Z,12.30
2023-05-11T18:06:22.196Z,12.20
2023-05-11T18:08:49.085Z,12.20
2023-05-11T18:11:15.785Z,12.20
2023-05-11T18:13:42.635Z,12.20
2023-05-11T18:16:09.445Z,12.10
2023-05-11T18:18:36.752Z,12.10
2023-05-11T18:21:07.348Z,12.10
2023-05-11T18:23:34.225Z,12.00
2023-05-11T18:26:00.903Z,11.90
2023-05-11T18:28:28.210Z,11.90
2023-05-11T18:30:55.041Z,11.90
2023-05-11T18:33:22.210Z,11.80
2023-05-11T18:35:51.081Z,11.80
2023-05-11T18:38:17.913Z,11.70
2023-05-11T18:40:44.961Z,11.70
2023-05-11T18:43:11.790Z,11.60
2023-05-11T18:45:40.827Z,11.60
2023-05-11T18:48:07.571Z,11.50
2023-05-11T18:50:34.310Z,11.50
2023-05-11T18:53:02.798Z,11.50
2023-05-11T18:55:33.193Z,11.50
2023-05-11T18:58:05.106Z,11.50
2023-05-11T19:00:36.873Z,11.50
2023-05-11T19:03:04.023Z,11.40
2023-05-11T19:05:30.963Z,11.40
2023-05-11T19:07:57.639Z,11.40
2023-05-11T19:10:24.650Z,11.40
2023-05-11T19:12:51.390Z,11.30
2023-05-11T19:15:18.096Z,11.30
2023-05-11T19:17:44.914Z,11.30
2023-05-11T19:20:12.694Z,11.30
2023-05-11T19:22:39.522Z,11.30
2023-05-11T19:25:07.314Z,11.30
2023-05-11T19:27:34.079Z,11.30
2023-05-11T19:30:00.898Z,11.30
2023-05-11T19:32:27.780Z,11.30
2023-05-11T19:34:55.031Z,11.20
2023-05-11T19:37:21.705Z,11.20
2023-05-11T19:39:49.215Z,11.20
2023-05-11T19:42:18.002Z,11.20
2023-05-11T19:44:46.786Z,11.20
2023-05-11T19:47:13.778Z,11.20
2023-05-11T19:49:41.517Z,11.20
2023-05-11T19:52:08.496Z,11.10
2023-05-11T19:54:35.786Z,11.10
2023-05-11T19:57:03.142Z,11.10
2023-05-11T19:59:32.877Z,11.00
2023-05-11T20:02:00.969Z,11.10
2023-05-11T20:04:28.413Z,11.10
2023-05-11T20:06:55.838Z,11.10
2023-05-11T20:09:23.216Z,11.10
2023-05-11T20:11:49.943Z,11.10
2023-05-11T20:14:17.040Z,11.10
2023-05-11T20:16:43.807Z,11.00
2023-05-11T20:19:10.660Z,11.00
2023-05-11T20:21:37.446Z,11.10
2023-05-11T20:24:04.264Z,11.00
2023-05-11T20:26:31.192Z,11.10
2023-05-11T20:28:57.807Z,11.10
2023-05-11T20:31:26.470Z,11.10
2023-05-11T20:36:22.644Z,11.00
2023-05-11T20:38:49.906Z,11.10
2023-05-11T20:41:16.701Z,11.10
2023-05-11T20:43:43.340Z,11.10
2023-05-11T20:46:11.384Z,11.00
2023-05-11T20:48:40.670Z,11.10
2023-05-11T20:51:08.487Z,11.10
2023-05-11T20:53:35.108Z,11.10
2023-05-11T20:56:02.954Z,11.10
2023-05-11T20:58:31.031Z,11.10
2023-05-11T21:00:57.818Z,11.00
2023-05-11T21:03:26.558Z,11.00
2023-05-11T21:05:53.575Z,11.10
2023-05-11T21:08:20.245Z,11.00
2023-05-11T21:10:46.911Z,11.00
2023-05-11T21:13:13.545Z,11.00
2023-05-11T21:15:40.227Z,11.00
2023-05-11T21:18:06.955Z,11.00
2023-05-11T21:20:33.695Z,11.00
2023-05-11T21:23:00.432Z,11.00
2023-05-11T21:25:27.073Z,11.00
2023-05-11T21:27:53.706Z,11.00
2023-05-11T21:30:20.958Z,11.00
2023-05-11T21:32:48.001Z,11.00
2023-05-11T21:35:16.652Z,11.00
2023-05-11T21:37:49.043Z,10.90
2023-05-11T21:40:17.352Z,11.00
2023-05-11T21:42:44.266Z,11.00
2023-05-11T21:45:12.003Z,10.90
2023-05-11T21:47:38.890Z,10.90
2023-05-11T21:50:07.007Z,10.90
2023-05-11T21:52:33.701Z,10.90
2023-05-11T21:55:00.440Z,10.90
2023-05-11T21:57:27.087Z,10.90
2023-05-11T21:59:53.729Z,10.90
2023-05-11T22:02:20.378Z,10.90
2023-05-11T22:04:47.239Z,10.90
2023-05-11T22:07:13.923Z,10.90
2023-05-11T22:09:40.538Z,10.90
2023-05-11T22:12:07.899Z,10.90
2023-05-11T22:14:34.636Z,11.00
2023-05-11T22:17:01.327Z,10.90
2023-05-11T22:19:29.067Z,10.90
2023-05-11T22:21:56.817Z,10.90
2023-05-11T22:24:24.950Z,10.90
2023-05-11T22:26:51.853Z,10.90
2023-05-11T22:29:18.495Z,10.90
2023-05-11T22:31:46.148Z,10.90
2023-05-11T22:34:13.112Z,10.90
2023-05-11T22:36:39.738Z,10.90
2023-05-11T22:39:06.544Z,10.90
2023-05-11T22:41:33.326Z,10.90
2023-05-11T22:44:00.033Z,10.90
2023-05-11T22:46:26.786Z,10.90
2023-05-11T22:48:53.526Z,10.90
2023-05-11T22:51:20.188Z,10.90
2023-05-11T22:53:48.197Z,10.90
2023-05-11T22:56:14.990Z,10.90
2023-05-11T22:58:41.666Z,10.90
2023-05-11T23:01:08.619Z,10.90
2023-05-11T23:03:35.339Z,10.90
2023-05-11T23:06:02.043Z,10.90
2023-05-11T23:08:28.771Z,10.90
2023-05-11T23:10:56.189Z,10.90
2023-05-11T23:13:22.833Z,10.90
2023-05-11T23:15:49.447Z,10.90
2023-05-11T23:18:16.296Z,10.90
2023-05-11T23:20:42.964Z,10.90
2023-05-11T23:23:09.610Z,10.90
2023-05-11T23:25:36.370Z,10.90
2023-05-11T23:28:03.052Z,10.90
2023-05-11T23:30:29.922Z,10.90
2023-05-11T23:32:56.841Z,10.80
2023-05-11T23:35:23.729Z,10.80
2023-05-11T23:37:50.351Z,10.80
2023-05-11T23:40:17.028Z,10.80
2023-05-11T23:42:43.744Z,10.80
2023-05-11T23:45:11.005Z,10.80
2023-05-11T23:47:37.810Z,10.80
2023-05-11T23:50:04.848Z,10.80
2023-05-11T23:52:31.487Z,10.80
2023-05-11T23:54:58.124Z,10.70
2023-05-11T23:57:24.789Z,10.70
2023-05-11T23:59:51.427Z,10.70
